Time;durP1;ratioP1;P1;durP2;ratioP2;P2;SDS_P1;SDS_P2;PMS_P1;PMS_P2;Temp;Humidity;BMP_temperature;BMP_pressure;BME280_temperature;BME280_humidity;BME280_pressure;Samples;Min_cycle;Max_cycle;Signal;HPM_P1;HPM_P2
2023/12/31 00:01:14;;;;;;;5.03;1.67;;;;;;;4.31;57.87;100577.34;4959104;28;20444;-70
2023/12/31 00:03:40;;;;;;;6.45;1.60;;;;;;;4.60;57.22;100571.59;4960288;28;20054;-69
2023/12/31 00:06:05;;;;;;;10.70;1.52;;;;;;;4.61;57.17;100565.56;4958424;28;20226;-69
2023/12/31 00:08:31;;;;;;;8.10;1.75;;;;;;;4.69;56.77;100565.38;4965773;28;21517;-69
2023/12/31 00:10:56;;;;;;;6.88;1.92;;;;;;;4.95;55.86;100562.28;4960035;28;20047;-69
2023/12/31 00:13:22;;;;;;;4.70;1.02;;;;;;;4.79;56.34;100562.56;4955083;28;20073;-65
2023/12/31 00:15:47;;;;;;;7.72;0.68;;;;;;;4.78;55.94;100553.09;4959424;28;20045;-65
2023/12/31 00:18:13;;;;;;;6.07;1.15;;;;;;;4.78;56.33;100550.50;4955913;28;20120;-66
2023/12/31 00:20:38;;;;;;;5.90;0.60;;;;;;;4.68;56.54;100548.16;4956968;28;20039;-66
2023/12/31 00:23:04;;;;;;;6.50;1.48;;;;;;;4.82;56.24;100548.72;4987696;28;20404;-66
2023/12/31 00:25:29;;;;;;;3.35;1.00;;;;;;;4.85;56.09;100548.63;4957670;28;20521;-66
2023/12/31 00:27:55;;;;;;;6.15;0.95;;;;;;;4.87;55.73;100544.28;4961634;28;20041;-65
2023/12/31 00:30:21;;;;;;;3.88;1.33;;;;;;;4.93;55.39;100543.34;4955364;28;20077;-65
2023/12/31 00:32:47;;;;;;;5.28;1.00;;;;;;;4.84;55.85;100539.19;4962431;28;20117;-65
2023/12/31 00:35:13;;;;;;;2.95;0.77;;;;;;;4.69;56.15;100529.97;4954935;28;20726;-65
2023/12/31 00:37:39;;;;;;;4.82;0.93;;;;;;;4.87;55.58;100525.31;4965289;28;20084;-66
2023/12/31 00:40:06;;;;;;;3.70;1.05;;;;;;;4.74;56.13;100522.97;4961655;28;20046;-67
2023/12/31 00:42:32;;;;;;;6.18;1.30;;;;;;;4.64;56.30;100514.56;4962999;28;20027;-65
2023/12/31 00:44:57;;;;;;;5.15;1.42;;;;;;;4.40;56.75;100508.13;4964750;28;20043;-65
2023/12/31 00:47:23;;;;;;;6.80;1.25;;;;;;;4.62;56.37;100507.69;4956177;28;21913;-64
2023/12/31 00:49:49;;;;;;;6.85;0.77;;;;;;;4.60;56.58;100507.72;4968469;28;20031;-65
2023/12/31 00:52:14;;;;;;;4.63;0.93;;;;;;;4.66;56.43;100504.16;4987956;28;20050;-65
2023/12/31 00:54:40;;;;;;;4.13;1.00;;;;;;;4.50;57.01;100507.94;4961551;28;20131;-67
2023/12/31 00:57:06;;;;;;;2.80;1.17;;;;;;;4.70;56.08;100492.88;4960024;28;20511;-66
2023/12/31 00:59:32;;;;;;;3.60;0.68;;;;;;;4.66;56.67;100493.81;4967565;28;20034;-66
2023/12/31 01:01:57;;;;;;;9.57;1.38;;;;;;;4.67;56.12;100505.88;4963047;28;20073;-65
2023/12/31 01:04:22;;;;;;;4.20;1.45;;;;;;;4.75;56.23;100501.38;4964524;28;20034;-67
2023/12/31 01:06:48;;;;;;;1.83;0.60;;;;;;;4.63;56.39;100501.63;4975635;28;20038;-68
2023/12/31 01:09:14;;;;;;;1.60;0.90;;;;;;;4.52;56.71;100495.81;4961308;28;20090;-68
2023/12/31 01:11:39;;;;;;;7.10;1.00;;;;;;;4.50;56.31;100495.88;4960201;28;20578;-67
2023/12/31 01:14:06;;;;;;;5.05;0.95;;;;;;;4.39;56.30;100488.34;4967793;28;20136;-68
2023/12/31 01:16:31;;;;;;;4.60;0.90;;;;;;;4.33;56.61;100485.00;4959479;28;20448;-65
2023/12/31 01:18:57;;;;;;;7.82;0.65;;;;;;;4.34;56.80;100476.34;4960626;28;20602;-65
2023/12/31 01:21:22;;;;;;;5.05;1.83;;;;;;;4.21;57.11;100491.28;4962693;28;20675;-64
2023/12/31 01:23:48;;;;;;;6.68;1.00;;;;;;;4.43;56.88;100484.81;4974686;28;20600;-65
2023/12/31 01:26:14;;;;;;;2.22;0.93;;;;;;;4.47;56.68;100487.31;4956878;28;20402;-65
2023/12/31 01:28:39;;;;;;;2.45;0.63;;;;;;;4.52;56.60;100480.28;4990226;28;20084;-67
2023/12/31 01:31:05;;;;;;;4.22;0.70;;;;;;;4.49;56.65;100470.88;4961292;28;20049;-62
2023/12/31 01:33:30;;;;;;;3.50;0.70;;;;;;;4.32;57.27;100475.53;4958403;28;20041;-63
2023/12/31 01:35:56;;;;;;;7.85;1.52;;;;;;;4.56;56.50;100471.59;4961137;28;20043;-64
2023/12/31 01:38:24;;;;;;;1.80;1.05;;;;;;;4.52;56.63;100464.78;4960958;28;20153;-68
2023/12/31 01:40:53;;;;;;;3.03;0.60;;;;;;;4.36;56.93;100470.28;4991541;28;20031;-68
2023/12/31 01:43:20;;;;;;;4.72;0.82;;;;;;;4.51;56.58;100468.25;4960083;28;20117;-68
2023/12/31 01:45:46;;;;;;;1.45;0.60;;;;;;;4.28;57.13;100468.75;4964431;28;20189;-68
2023/12/31 01:48:12;;;;;;;6.70;1.15;;;;;;;4.36;56.62;100470.28;4961414;28;20041;-68
2023/12/31 01:50:37;;;;;;;4.45;0.70;;;;;;;4.27;57.21;100470.44;4962518;28;20070;-65
2023/12/31 01:53:04;;;;;;;2.20;0.50;;;;;;;4.48;56.93;100463.16;4977839;28;20119;-65
2023/12/31 01:55:30;;;;;;;4.13;0.98;;;;;;;4.37;57.28;100455.63;4959497;28;20648;-66
2023/12/31 01:57:55;;;;;;;3.35;0.60;;;;;;;4.45;57.01;100452.84;4961597;28;20076;-72
2023/12/31 02:00:21;;;;;;;2.40;1.48;;;;;;;4.60;56.89;100452.53;4964052;28;20049;-65
2023/12/31 02:02:51;;;;;;;4.97;1.38;;;;;;;4.67;56.56;100456.66;4964003;28;20493;-67
2023/12/31 02:05:17;;;;;;;1.67;0.50;;;;;;;4.66;56.73;100447.22;4955492;28;20043;-66
2023/12/31 02:07:43;;;;;;;7.20;0.60;;;;;;;4.70;56.86;100447.97;4958118;28;20134;-65
2023/12/31 02:10:09;;;;;;;2.28;0.52;;;;;;;4.67;56.71;100440.28;4961825;28;20034;-71
2023/12/31 02:12:35;;;;;;;1.92;0.63;;;;;;;4.90;55.92;100438.09;4974741;28;20676;-71
2023/12/31 02:15:00;;;;;;;6.43;0.80;;;;;;;4.78;56.33;100430.53;4960965;28;20092;-72
2023/12/31 02:17:28;;;;;;;7.53;0.93;;;;;;;4.81;56.42;100435.66;4958317;28;20085;-72
2023/12/31 02:19:54;;;;;;;1.00;0.50;;;;;;;4.77;56.82;100424.53;4962004;28;20053;-71
2023/12/31 02:22:20;;;;;;;2.78;0.50;;;;;;;4.80;56.43;100414.09;4960364;28;20035;-71
2023/12/31 02:24:51;;;;;;;1.70;0.98;;;;;;;4.96;55.85;100424.13;4960949;28;20042;-72
2023/12/31 02:27:17;;;;;;;3.03;0.80;;;;;;;4.88;55.83;100408.78;4961568;28;20137;-71
2023/12/31 02:29:44;;;;;;;3.35;0.98;;;;;;;5.00;55.63;100405.03;4961694;28;20100;-71
2023/12/31 02:32:09;;;;;;;4.95;1.23;;;;;;;4.78;56.59;100409.84;4959041;28;20122;-64
2023/12/31 02:34:35;;;;;;;3.22;1.05;;;;;;;5.00;56.09;100412.81;4955820;28;20050;-71
2023/12/31 02:37:00;;;;;;;1.70;0.38;;;;;;;4.93;56.29;100409.50;4963712;28;20041;-69
2023/12/31 02:39:26;;;;;;;1.88;0.60;;;;;;;4.97;56.00;100399.94;4970868;28;20846;-69
2023/12/31 02:41:52;;;;;;;3.88;0.55;;;;;;;4.89;56.31;100394.94;4953126;28;20034;-73
2023/12/31 02:44:18;;;;;;;3.25;0.40;;;;;;;4.84;56.47;100387.25;4952870;28;20058;-66
2023/12/31 02:46:43;;;;;;;5.95;0.82;;;;;;;4.96;55.97;100382.69;4956674;28;20101;-67
2023/12/31 02:49:11;;;;;;;4.25;0.68;;;;;;;4.84;56.35;100384.66;4960783;28;20121;-67
2023/12/31 02:51:39;;;;;;;4.10;0.73;;;;;;;4.84;55.97;100373.44;4987313;28;20038;-67
2023/12/31 02:54:05;;;;;;;2.58;0.50;;;;;;;4.78;56.61;100373.59;4962875;28;20046;-67
2023/12/31 02:56:30;;;;;;;0.90;0.30;;;;;;;4.79;56.45;100372.72;4955198;28;20046;-66
2023/12/31 02:58:56;;;;;;;3.70;0.50;;;;;;;4.79;56.09;100370.97;4967535;28;20049;-65
2023/12/31 03:01:21;;;;;;;1.13;0.47;;;;;;;4.75;56.96;100365.91;4958705;28;20047;-67
2023/12/31 03:03:47;;;;;;;5.72;0.60;;;;;;;4.78;57.08;100358.91;4958522;28;20663;-65
2023/12/31 03:06:15;;;;;;;6.95;1.25;;;;;;;4.73;56.98;100358.16;4959085;28;20049;-65
2023/12/31 03:08:41;;;;;;;4.22;0.52;;;;;;;4.67;56.75;100360.06;4956845;28;20077;-68
2023/12/31 03:11:08;;;;;;;2.28;0.50;;;;;;;4.71;56.86;100357.34;4961391;28;20050;-68
2023/12/31 03:13:34;;;;;;;1.02;0.43;;;;;;;4.76;56.72;100339.97;4960976;28;20124;-68
2023/12/31 03:16:05;;;;;;;3.13;0.75;;;;;;;4.58;57.06;100335.22;4961085;28;20517;-68
2023/12/31 03:18:30;;;;;;;4.65;1.35;;;;;;;4.47;57.67;100334.63;4954709;28;20524;-68
2023/12/31 03:20:56;;;;;;;4.55;0.70;;;;;;;4.57;57.52;100328.38;4990006;28;20051;-68
2023/12/31 03:23:21;;;;;;;2.75;0.40;;;;;;;4.62;57.01;100319.59;4956364;28;20125;-68
2023/12/31 03:25:47;;;;;;;4.70;0.32;;;;;;;4.80;57.02;100322.63;4957890;28;20154;-68
2023/12/31 03:28:14;;;;;;;3.22;0.50;;;;;;;4.70;57.40;100318.53;4960324;28;20053;-68
2023/12/31 03:30:40;;;;;;;1.42;0.63;;;;;;;4.52;57.58;100299.13;4956510;28;20567;-68
2023/12/31 03:33:07;;;;;;;2.83;0.40;;;;;;;4.90;56.92;100306.00;4974823;28;20211;-68
2023/12/31 03:35:32;;;;;;;1.15;0.40;;;;;;;4.73;57.03;100308.13;4961043;28;20600;-64
2023/12/31 03:37:58;;;;;;;1.90;0.38;;;;;;;4.77;57.10;100302.84;4960298;28;20045;-65
2023/12/31 03:40:24;;;;;;;2.95;0.50;;;;;;;4.80;57.22;100297.56;4945829;28;20061;-65
2023/12/31 03:42:49;;;;;;;3.03;0.68;;;;;;;4.59;57.87;100295.53;4958593;28;21033;-64
2023/12/31 03:45:15;;;;;;;3.67;0.40;;;;;;;4.74;56.93;100284.78;4959311;28;20417;-65
2023/12/31 03:47:40;;;;;;;0.82;0.20;;;;;;;4.79;56.96;100284.69;4946765;28;20540;-65
2023/12/31 03:50:06;;;;;;;4.32;0.43;;;;;;;4.71;57.53;100284.84;4956655;28;20035;-66
2023/12/31 03:52:32;;;;;;;1.38;0.22;;;;;;;4.79;57.26;100266.56;4954076;28;20030;-66
2023/12/31 03:54:58;;;;;;;0.90;0.30;;;;;;;4.66;57.42;100266.00;4960427;28;20042;-65
2023/12/31 03:57:23;;;;;;;1.23;0.20;;;;;;;4.60;57.76;100264.41;4964777;28;20042;-68
2023/12/31 03:59:49;;;;;;;4.63;0.73;;;;;;;4.80;57.22;100258.72;4961388;28;20077;-69
2023/12/31 04:02:17;;;;;;;0.77;0.35;;;;;;;4.87;56.85;100259.41;4960356;28;20113;-68
2023/12/31 04:04:45;;;;;;;0.98;0.20;;;;;;;4.82;57.18;100248.34;4963174;28;20121;-68
2023/12/31 04:07:11;;;;;;;2.10;0.30;;;;;;;4.78;57.13;100242.38;4959017;28;20043;-68
2023/12/31 04:09:36;;;;;;;1.30;0.40;;;;;;;4.91;56.52;100235.19;4982704;28;20042;-68
2023/12/31 04:12:04;;;;;;;1.30;0.35;;;;;;;4.77;56.97;100230.34;4983223;28;20045;-70
2023/12/31 04:14:30;;;;;;;1.15;0.30;;;;;;;4.49;57.79;100226.75;4963187;28;20078;-70
2023/12/31 04:16:56;;;;;;;3.40;0.43;;;;;;;4.47;57.96;100225.94;4966878;28;20034;-65
2023/12/31 04:19:21;;;;;;;1.23;0.30;;;;;;;4.60;57.39;100224.75;4994171;28;20049;-63
2023/12/31 04:21:47;;;;;;;2.40;0.17;;;;;;;4.80;56.92;100211.28;4993850;28;20026;-64
2023/12/31 04:24:12;;;;;;;1.50;0.22;;;;;;;4.79;57.22;100213.03;4970907;28;20038;-64
2023/12/31 04:26:42;;;;;;;1.02;0.20;;;;;;;4.56;57.96;100207.59;4987869;28;20102;-63
2023/12/31 04:29:07;;;;;;;2.80;0.30;;;;;;;4.68;57.62;100201.25;4963828;28;20764;-64
2023/12/31 04:31:33;;;;;;;0.93;0.40;;;;;;;4.71;57.49;100196.00;4959736;28;20153;-65
2023/12/31 04:33:59;;;;;;;1.05;0.17;;;;;;;4.58;57.92;100198.06;4971838;28;20114;-66
2023/12/31 04:36:24;;;;;;;2.35;0.82;;;;;;;4.61;57.92;100185.03;4993260;28;20030;-65
2023/12/31 04:38:49;;;;;;;1.90;0.40;;;;;;;4.69;57.39;100177.91;4963279;28;20097;-64
2023/12/31 04:41:20;;;;;;;1.30;0.40;;;;;;;4.36;58.40;100172.75;4971529;28;20167;-64
2023/12/31 04:43:45;;;;;;;2.40;0.40;;;;;;;4.43;58.58;100165.63;4968547;28;20045;-65
2023/12/31 04:46:11;;;;;;;2.65;0.43;;;;;;;4.22;58.95;100167.03;4963615;28;20220;-65
2023/12/31 04:48:40;;;;;;;2.28;0.20;;;;;;;4.33;58.46;100164.19;4960014;28;20085;-66
2023/12/31 04:51:06;;;;;;;0.90;0.38;;;;;;;4.49;58.33;100156.88;4960733;28;20101;-64
2023/12/31 04:53:36;;;;;;;1.23;0.30;;;;;;;4.46;58.25;100156.97;4964409;28;20035;-65
2023/12/31 04:56:02;;;;;;;1.98;0.50;;;;;;;4.26;58.61;100155.75;4963831;28;20059;-66
2023/12/31 04:58:27;;;;;;;1.95;0.50;;;;;;;4.36;58.40;100151.16;4963666;28;20056;-66
2023/12/31 05:00:53;;;;;;;0.60;0.30;;;;;;;4.32;58.64;100146.94;4959181;28;20141;-67
2023/12/31 05:03:18;;;;;;;2.97;0.93;;;;;;;4.46;58.00;100139.69;4964280;28;20609;-66
2023/12/31 05:05:44;;;;;;;2.13;1.08;;;;;;;4.38;58.15;100132.13;4957684;28;20105;-70
2023/12/31 05:08:09;;;;;;;2.35;0.30;;;;;;;4.41;58.21;100138.97;4965378;28;20030;-70
2023/12/31 05:10:36;;;;;;;4.45;0.38;;;;;;;4.36;58.36;100135.66;4962710;28;20133;-71
2023/12/31 05:13:04;;;;;;;2.05;0.47;;;;;;;4.25;58.71;100119.56;4979787;28;20027;-70
2023/12/31 05:15:30;;;;;;;0.95;0.77;;;;;;;4.43;58.19;100125.09;4964269;28;20390;-70
2023/12/31 05:17:56;;;;;;;1.75;0.30;;;;;;;4.30;58.59;100112.53;4961792;28;21099;-69
2023/12/31 05:20:21;;;;;;;1.52;0.52;;;;;;;4.34;58.28;100112.41;4963471;28;20104;-65
2023/12/31 05:22:47;;;;;;;1.20;0.55;;;;;;;4.16;59.18;100107.69;4965930;28;20101;-66
2023/12/31 05:25:13;;;;;;;0.82;0.40;;;;;;;4.33;58.64;100113.28;4966060;28;20153;-66
2023/12/31 05:27:38;;;;;;;2.97;0.98;;;;;;;4.37;58.06;100107.16;4958723;28;20034;-65
2023/12/31 05:30:06;;;;;;;1.90;0.50;;;;;;;4.35;58.54;100106.34;4963308;28;20034;-67
2023/12/31 05:32:31;;;;;;;2.97;0.50;;;;;;;4.46;58.14;100100.88;4962149;28;20052;-66
2023/12/31 05:34:57;;;;;;;2.92;0.47;;;;;;;4.49;57.71;100087.00;4958638;28;20604;-66
2023/12/31 05:37:23;;;;;;;3.15;0.47;;;;;;;4.43;57.79;100094.06;4962834;28;20061;-66
2023/12/31 05:39:48;;;;;;;3.08;0.30;;;;;;;4.37;58.05;100086.47;4958772;28;20556;-71
2023/12/31 05:42:14;;;;;;;1.75;0.52;;;;;;;4.47;57.63;100083.63;4965884;28;20062;-71
2023/12/31 05:44:39;;;;;;;2.10;0.50;;;;;;;4.29;58.13;100075.44;4958254;28;20051;-71
2023/12/31 05:47:05;;;;;;;3.75;0.52;;;;;;;4.33;57.97;100061.56;4969037;28;20067;-71
2023/12/31 05:49:35;;;;;;;0.65;0.30;;;;;;;4.29;57.99;100054.75;4964587;28;20097;-70
2023/12/31 05:52:03;;;;;;;0.73;0.25;;;;;;;4.23;58.53;100047.19;4959388;28;20627;-70
2023/12/31 05:54:28;;;;;;;1.77;0.40;;;;;;;4.19;58.45;100043.81;4963152;28;20050;-70
2023/12/31 05:56:54;;;;;;;1.05;0.50;;;;;;;4.31;57.97;100052.13;4961291;28;20027;-70
2023/12/31 05:59:19;;;;;;;3.03;0.30;;;;;;;4.15;58.27;100043.94;4963809;28;20612;-70
2023/12/31 06:01:45;;;;;;;1.02;0.35;;;;;;;3.99;58.96;100039.16;4958729;28;20636;-70
2023/12/31 06:04:11;;;;;;;2.83;0.32;;;;;;;4.16;58.21;100045.63;4964966;28;20046;-70
2023/12/31 06:06:36;;;;;;;4.40;1.13;;;;;;;4.30;57.91;100030.59;4960414;28;20031;-66
2023/12/31 06:09:02;;;;;;;1.83;0.30;;;;;;;4.30;57.61;100022.00;4957901;28;20627;-65
2023/12/31 06:11:28;;;;;;;2.22;0.85;;;;;;;4.01;58.45;100018.47;4962445;28;20045;-66
2023/12/31 06:13:53;;;;;;;0.90;0.30;;;;;;;4.04;58.35;100017.53;4988066;28;20038;-67
2023/12/31 06:16:19;;;;;;;1.40;0.30;;;;;;;4.06;58.50;100006.25;4962297;28;20485;-66
2023/12/31 06:18:44;;;;;;;1.77;0.90;;;;;;;3.86;58.77;100004.19;4954721;28;21282;-65
2023/12/31 06:21:10;;;;;;;2.13;0.82;;;;;;;4.05;58.21;100004.56;4961854;28;20528;-66
2023/12/31 06:23:35;;;;;;;0.85;0.50;;;;;;;4.10;57.79;100001.84;4962318;28;20038;-66
2023/12/31 06:26:01;;;;;;;1.23;0.70;;;;;;;4.04;57.87;100000.25;4956491;28;20042;-65
2023/12/31 06:28:26;;;;;;;2.65;0.40;;;;;;;3.97;57.66;99990.97;4958661;28;20030;-66
2023/12/31 06:30:51;;;;;;;2.25;0.30;;;;;;;3.91;58.08;99986.81;4957520;28;20097;-66
2023/12/31 06:33:17;;;;;;;1.00;0.30;;;;;;;3.77;58.28;99996.66;4961476;28;20035;-66
2023/12/31 06:35:43;;;;;;;1.98;0.45;;;;;;;3.80;58.38;99979.31;4952744;28;20070;-66
2023/12/31 06:38:08;;;;;;;2.85;0.40;;;;;;;3.70;58.82;99987.38;4958935;28;20042;-65
2023/12/31 06:40:34;;;;;;;4.57;0.35;;;;;;;3.70;58.83;99977.03;4958308;28;20085;-65
2023/12/31 06:42:59;;;;;;;4.55;0.55;;;;;;;3.71;58.83;99976.13;4956927;28;20596;-65
2023/12/31 06:45:25;;;;;;;1.48;0.50;;;;;;;3.74;58.45;99963.16;4959937;28;20899;-65
2023/12/31 06:47:50;;;;;;;3.60;0.77;;;;;;;3.72;58.79;99959.75;4955783;28;20505;-66
2023/12/31 06:50:15;;;;;;;1.33;0.40;;;;;;;3.75;58.16;99957.94;4959745;28;20043;-66
2023/12/31 06:52:41;;;;;;;1.98;0.38;;;;;;;3.87;57.89;99954.16;4959467;28;20042;-66
2023/12/31 06:55:10;;;;;;;1.92;0.40;;;;;;;3.70;58.74;99957.22;4957316;28;20043;-66
2023/12/31 06:57:36;;;;;;;1.60;0.50;;;;;;;3.84;58.13;99953.41;4957159;28;20038;-67
2023/12/31 07:00:02;;;;;;;3.63;0.77;;;;;;;3.64;58.83;99953.94;4973877;28;20161;-65
2023/12/31 07:02:28;;;;;;;1.50;0.40;;;;;;;3.67;58.43;99946.09;4960764;28;20129;-70
2023/12/31 07:04:53;;;;;;;1.75;0.45;;;;;;;3.63;58.76;99940.16;4941137;28;20642;-71
2023/12/31 07:07:19;;;;;;;3.03;0.40;;;;;;;3.60;58.88;99940.22;4959613;28;20034;-73
2023/12/31 07:09:45;;;;;;;2.00;0.40;;;;;;;3.71;58.57;99937.38;4957919;28;20493;-73
2023/12/31 07:12:10;;;;;;;3.00;0.55;;;;;;;3.57;59.00;99930.84;4966705;28;20046;-73
2023/12/31 07:14:37;;;;;;;3.67;0.55;;;;;;;3.50;58.86;99924.13;4959089;28;20050;-70
2023/12/31 07:17:02;;;;;;;3.05;0.82;;;;;;;3.55;59.02;99927.44;4955469;28;20092;-73
2023/12/31 07:19:28;;;;;;;4.32;0.43;;;;;;;3.37;59.27;99920.16;4961928;28;20093;-71
2023/12/31 07:21:53;;;;;;;2.83;0.57;;;;;;;3.51;59.00;99914.63;4969037;28;20039;-69
2023/12/31 07:24:19;;;;;;;1.90;0.45;;;;;;;3.59;58.63;99898.06;4958854;28;20077;-68
2023/12/31 07:26:44;;;;;;;1.58;0.40;;;;;;;3.59;58.78;99907.53;4956046;28;20506;-65
2023/12/31 07:29:10;;;;;;;3.15;0.73;;;;;;;3.53;58.61;99908.53;4954854;28;20391;-72
2023/12/31 07:31:36;;;;;;;1.83;0.47;;;;;;;3.57;58.83;99898.97;4960718;28;20042;-70
2023/12/31 07:34:03;;;;;;;4.05;0.40;;;;;;;3.22;59.68;99897.28;4954425;28;20061;-69
2023/12/31 07:36:29;;;;;;;2.35;0.40;;;;;;;3.41;59.25;99903.72;4958484;28;20038;-69
2023/12/31 07:38:54;;;;;;;2.25;0.50;;;;;;;3.41;59.14;99900.28;4951865;28;20053;-69
2023/12/31 07:41:20;;;;;;;5.40;0.65;;;;;;;3.57;58.83;99884.31;4958917;28;20089;-69
2023/12/31 07:43:46;;;;;;;2.45;0.70;;;;;;;3.52;58.99;99883.59;4954609;28;20030;-68
2023/12/31 07:46:13;;;;;;;2.25;0.68;;;;;;;3.41;58.92;99885.63;4957617;28;20038;-67
2023/12/31 07:48:39;;;;;;;2.35;0.80;;;;;;;3.29;58.96;99883.34;4954783;28;20038;-66
2023/12/31 07:51:06;;;;;;;1.75;0.93;;;;;;;3.38;59.07;99877.94;4953533;28;20045;-66
2023/12/31 07:53:32;;;;;;;5.45;1.10;;;;;;;3.50;59.04;99869.88;4989355;28;20034;-71
2023/12/31 07:55:59;;;;;;;2.22;0.43;;;;;;;3.25;59.57;99871.34;4960104;28;20457;-71
2023/12/31 07:58:27;;;;;;;1.45;0.40;;;;;;;3.41;59.28;99867.53;4960563;28;20031;-68
2023/12/31 08:00:54;;;;;;;5.95;1.65;;;;;;;3.49;59.00;99869.91;4954411;28;20717;-66
2023/12/31 08:03:20;;;;;;;2.33;1.05;;;;;;;3.41;59.06;99866.69;4957843;28;20589;-67
2023/12/31 08:05:45;;;;;;;3.67;1.65;;;;;;;3.28;59.52;99868.72;4986795;28;20133;-76
2023/12/31 08:08:12;;;;;;;3.90;0.45;;;;;;;3.51;58.78;99861.22;4972368;28;20035;-73
2023/12/31 08:10:40;;;;;;;3.88;0.68;;;;;;;3.27;59.69;99864.41;4954518;28;20580;-70
2023/12/31 08:13:09;;;;;;;1.80;0.50;;;;;;;3.37;59.75;99861.59;4955413;28;20134;-66
2023/12/31 08:15:35;;;;;;;1.52;0.77;;;;;;;3.37;59.37;99853.00;4956124;28;20042;-68
2023/12/31 08:18:02;;;;;;;4.05;0.85;;;;;;;3.39;59.44;99843.47;4954591;28;20041;-69
2023/12/31 08:20:28;;;;;;;2.40;0.55;;;;;;;3.49;59.05;99844.94;4958393;28;20416;-66
2023/12/31 08:22:54;;;;;;;5.85;0.70;;;;;;;3.36;59.37;99843.56;4956394;28;20814;-71
2023/12/31 08:25:20;;;;;;;1.17;0.40;;;;;;;3.47;59.05;99838.09;4961539;28;20043;-68
2023/12/31 08:27:46;;;;;;;3.35;0.68;;;;;;;3.69;58.61;99834.03;4958890;28;20034;-69
2023/12/31 08:30:12;;;;;;;1.45;0.55;;;;;;;3.75;58.73;99835.59;4955988;28;20537;-67
2023/12/31 08:32:37;;;;;;;5.70;1.17;;;;;;;3.68;58.69;99829.75;4970196;28;20622;-67
2023/12/31 08:35:04;;;;;;;3.88;1.00;;;;;;;3.75;58.43;99827.84;4954875;28;20416;-65
2023/12/31 08:37:30;;;;;;;2.13;1.02;;;;;;;3.89;58.14;99828.28;4959409;28;20520;-66
2023/12/31 08:39:55;;;;;;;7.43;1.13;;;;;;;3.87;58.34;99826.66;4953731;28;20038;-65
2023/12/31 08:42:21;;;;;;;3.00;1.35;;;;;;;3.87;58.05;99819.72;4957743;28;20864;-66
2023/12/31 08:44:47;;;;;;;1.45;0.70;;;;;;;3.71;58.51;99815.91;4955296;28;20035;-66
2023/12/31 08:47:13;;;;;;;1.48;0.70;;;;;;;4.12;57.46;99814.72;4954466;28;20481;-65
2023/12/31 08:49:38;;;;;;;2.53;1.27;;;;;;;3.90;57.73;99814.50;4954511;28;20097;-68
2023/12/31 08:52:04;;;;;;;3.90;1.00;;;;;;;4.20;57.03;99811.88;4955532;28;20034;-65
2023/12/31 08:54:30;;;;;;;8.05;1.30;;;;;;;4.19;57.12;99805.03;4956714;28;20042;-66
2023/12/31 08:56:55;;;;;;;2.97;1.10;;;;;;;4.22;57.29;99804.91;4956595;28;20661;-66
2023/12/31 08:59:21;;;;;;;1.98;1.20;;;;;;;4.33;57.23;99808.03;4956456;28;20070;-65
2023/12/31 09:01:46;;;;;;;4.20;0.93;;;;;;;4.45;56.76;99803.34;4975185;28;20038;-65
2023/12/31 09:04:13;;;;;;;2.40;1.10;;;;;;;4.33;56.85;99802.84;4985801;28;20050;-66
2023/12/31 09:06:39;;;;;;;3.70;0.45;;;;;;;4.69;56.05;99793.97;4955717;28;20089;-66
2023/12/31 09:09:05;;;;;;;1.85;0.88;;;;;;;4.60;56.18;99792.50;4961009;28;20551;-65
2023/12/31 09:11:30;;;;;;;2.53;0.75;;;;;;;4.43;56.82;99791.31;4969681;28;20050;-66
2023/12/31 09:13:56;;;;;;;3.17;0.63;;;;;;;4.72;55.58;99779.19;4961399;28;20117;-66
2023/12/31 09:16:21;;;;;;;1.67;0.98;;;;;;;4.81;55.53;99775.41;4960878;28;20093;-64
2023/12/31 09:18:47;;;;;;;4.22;0.95;;;;;;;4.62;56.03;99763.09;4959766;28;20069;-66
2023/12/31 09:21:12;;;;;;;2.75;0.75;;;;;;;4.70;55.50;99755.09;4958793;28;20140;-66
2023/12/31 09:23:41;;;;;;;4.45;0.55;;;;;;;4.73;55.73;99760.16;4960361;28;20035;-64
2023/12/31 09:26:07;;;;;;;2.00;0.75;;;;;;;4.68;56.01;99754.28;4956065;28;20053;-65
2023/12/31 09:28:32;;;;;;;4.28;1.40;;;;;;;4.78;55.46;99752.22;4963348;28;20039;-66
2023/12/31 09:30:58;;;;;;;3.17;0.50;;;;;;;4.80;55.73;99750.44;4954509;28;22270;-65
2023/12/31 09:33:23;;;;;;;1.40;0.82;;;;;;;4.74;55.70;99741.13;4967428;28;20108;-67
2023/12/31 09:35:49;;;;;;;2.33;1.25;;;;;;;4.76;55.37;99744.50;4959575;28;20043;-64
2023/12/31 09:38:14;;;;;;;2.40;0.80;;;;;;;4.95;55.13;99749.13;4957166;28;20030;-65
2023/12/31 09:40:41;;;;;;;1.80;1.02;;;;;;;5.01;54.94;99746.28;4959578;28;20129;-65
2023/12/31 09:43:09;;;;;;;2.38;1.05;;;;;;;4.96;55.01;99743.88;4965699;28;20034;-66
2023/12/31 09:45:35;;;;;;;1.95;0.80;;;;;;;4.90;55.45;99741.50;4960897;28;20043;-64
2023/12/31 09:48:01;;;;;;;1.38;0.60;;;;;;;5.13;54.67;99738.09;4971338;28;20041;-65
2023/12/31 09:50:27;;;;;;;3.35;1.20;;;;;;;5.03;54.52;99736.72;4957749;28;20133;-65
2023/12/31 09:52:59;;;;;;;3.55;1.00;;;;;;;5.16;54.15;99717.25;4974113;28;20047;-66
2023/12/31 09:55:25;;;;;;;1.42;0.60;;;;;;;5.39;53.76;99708.66;4958133;28;20601;-67
2023/12/31 09:57:55;;;;;;;4.82;0.85;;;;;;;5.20;54.31;99707.66;4956205;28;20038;-65
2023/12/31 10:00:21;;;;;;;2.40;0.90;;;;;;;5.26;54.25;99712.63;4970231;28;20042;-64
2023/12/31 10:02:52;;;;;;;3.60;0.85;;;;;;;5.36;53.74;99702.75;4956381;28;20085;-66
2023/12/31 10:05:20;;;;;;;3.95;1.25;;;;;;;5.61;53.34;99700.94;4953924;28;22683;-64
2023/12/31 10:07:46;;;;;;;1.80;0.90;;;;;;;6.00;52.38;99702.88;4958096;28;20035;-67
2023/12/31 10:10:14;;;;;;;3.08;1.00;;;;;;;5.78;52.74;99699.44;4954732;28;20047;-64
2023/12/31 10:12:39;;;;;;;3.38;0.63;;;;;;;5.94;52.44;99694.50;4960303;28;20089;-64
2023/12/31 10:15:08;;;;;;;5.30;1.45;;;;;;;5.81;52.37;99686.34;4953515;28;20527;-63
2023/12/31 10:17:35;;;;;;;1.63;0.57;;;;;;;5.85;52.41;99691.34;4957929;28;20600;-65
2023/12/31 10:20:02;;;;;;;3.08;0.60;;;;;;;5.92;52.51;99680.75;4955565;28;20102;-66
2023/12/31 10:22:30;;;;;;;2.22;0.60;;;;;;;5.92;52.48;99675.56;4954378;28;20042;-64
2023/12/31 10:25:11;;;;;;;3.42;0.77;;;;;;;6.11;52.05;99660.94;4950130;28;20118;-63
2023/12/31 10:27:37;;;;;;;1.75;0.77;;;;;;;6.17;51.51;99659.84;4957190;28;21218;-66
2023/12/31 10:30:11;;;;;;;1.65;0.45;;;;;;;6.13;51.86;99648.75;4954017;28;20104;-64
2023/12/31 10:32:37;;;;;;;1.15;0.43;;;;;;;6.35;51.33;99648.75;4956331;28;20061;-63
2023/12/31 10:35:03;;;;;;;1.98;0.47;;;;;;;6.32;51.30;99638.47;4953766;28;20306;-66
2023/12/31 10:37:29;;;;;;;1.75;0.52;;;;;;;6.21;51.32;99635.44;4956302;28;20553;-65
2023/12/31 10:39:54;;;;;;;1.17;0.70;;;;;;;6.36;51.23;99632.25;4953089;28;20069;-66
2023/12/31 10:42:21;;;;;;;1.30;0.57;;;;;;;6.32;51.55;99628.09;4954642;28;20160;-65
2023/12/31 10:44:53;;;;;;;1.65;0.88;;;;;;;6.22;51.26;99629.38;4951475;28;20039;-65
2023/12/31 10:47:19;;;;;;;2.25;0.57;;;;;;;6.57;50.65;99621.84;4956058;28;20046;-65
2023/12/31 10:49:48;;;;;;;2.97;0.63;;;;;;;6.46;50.54;99615.41;4955160;28;20060;-63
2023/12/31 10:52:15;;;;;;;2.75;0.43;;;;;;;6.55;50.42;99608.97;4955259;28;20533;-66
2023/12/31 10:54:51;;;;;;;4.15;0.70;;;;;;;6.76;50.04;99601.97;4953739;28;20050;-64
2023/12/31 10:57:19;;;;;;;0.93;0.50;;;;;;;6.50;50.46;99601.34;4956784;28;20493;-65
2023/12/31 10:59:47;;;;;;;6.45;0.82;;;;;;;6.56;50.54;99599.41;4984444;28;20501;-63
2023/12/31 11:02:17;;;;;;;4.15;0.50;;;;;;;6.66;50.36;99579.91;4955119;28;20050;-64
2023/12/31 11:04:45;;;;;;;1.67;0.32;;;;;;;6.62;50.25;99580.94;4972836;28;20887;-64
2023/12/31 11:07:14;;;;;;;1.63;0.47;;;;;;;6.56;50.13;99578.66;4957836;28;20498;-65
2023/12/31 11:09:41;;;;;;;6.32;0.75;;;;;;;6.66;50.12;99570.38;4955232;28;20044;-66
2023/12/31 11:12:08;;;;;;;2.60;0.50;;;;;;;6.60;50.25;99565.47;4951403;28;20042;-66
2023/12/31 11:14:37;;;;;;;1.38;0.55;;;;;;;7.05;49.32;99568.66;4956622;28;20043;-64
2023/12/31 11:17:11;;;;;;;2.90;0.40;;;;;;;6.97;49.16;99570.75;4959865;28;20052;-63
2023/12/31 11:20:12;;;;;;;1.55;0.50;;;;;;;6.52;50.01;99551.13;4958607;28;20117;-64
2023/12/31 11:23:01;;;;;;;5.32;0.88;;;;;;;6.43;49.83;99550.63;4960098;28;20839;-64
2023/12/31 11:25:26;;;;;;;4.22;1.02;;;;;;;6.57;49.98;99543.97;4958272;28;20035;-64
2023/12/31 11:27:54;;;;;;;1.20;0.40;;;;;;;6.65;50.26;99552.28;4959961;28;20037;-64
2023/12/31 11:30:48;;;;;;;3.08;0.93;;;;;;;6.79;49.87;99538.66;4958001;28;20049;-65
2023/12/31 11:33:24;;;;;;;1.52;0.40;;;;;;;6.67;50.01;99529.69;4958444;28;20034;-65